createdAt,value
2022-08-28T00:02:20.204Z,95234.19
2022-08-28T00:05:23.668Z,95242.56
2022-08-28T00:08:26.866Z,95237.81
2022-08-28T00:11:28.560Z,95234.00
2022-08-28T00:14:30.458Z,95226.19
2022-08-28T00:17:32.297Z,95233.78
2022-08-28T00:20:34.506Z,95235.16
2022-08-28T00:23:42.864Z,95238.38
2022-08-28T00:26:44.979Z,95237.19
2022-08-28T00:29:46.718Z,95230.19
2022-08-28T00:32:48.438Z,95237.34
2022-08-28T00:35:50.756Z,95238.72
2022-08-28T00:38:53.829Z,95234.47
2022-08-28T00:41:56.665Z,95232.78
2022-08-28T00:44:59.888Z,95228.91
2022-08-28T00:48:01.858Z,95234.44
2022-08-28T00:51:04.397Z,95245.84
2022-08-28T00:54:08.158Z,95241.13
2022-08-28T00:57:11.387Z,95248.41
2022-08-28T01:00:14.435Z,95251.00
2022-08-28T01:03:17.017Z,95254.22
2022-08-28T01:06:19.025Z,95251.16
2022-08-28T01:09:22.526Z,95248.75
2022-08-28T01:12:26.606Z,95245.41
2022-08-28T01:15:30.073Z,95244.94
2022-08-28T01:18:32.752Z,95237.31
2022-08-28T01:21:39.852Z,95235.81
2022-08-28T01:24:44.736Z,95235.03
2022-08-28T01:27:46.948Z,95240.38
2022-08-28T01:30:48.890Z,95244.31
2022-08-28T01:33:51.028Z,95237.00
2022-08-28T01:36:52.681Z,95234.69
2022-08-28T01:39:55.811Z,95238.22
2022-08-28T01:43:06.124Z,95238.34
2022-08-28T01:46:07.897Z,95242.25
2022-08-28T01:49:10.524Z,95244.72
2022-08-28T01:52:12.289Z,95247.16
2022-08-28T01:55:15.425Z,95244.59
2022-08-28T01:58:22.550Z,95252.22
2022-08-28T02:01:24.447Z,95254.84
2022-08-28T02:04:31.831Z,95255.13
2022-08-28T02:07:34.157Z,95259.38
2022-08-28T02:10:38.491Z,95242.59
2022-08-28T02:13:40.463Z,95249.16
2022-08-28T02:16:42.118Z,95243.06
2022-08-28T02:19:43.793Z,95246.28
2022-08-28T02:22:46.298Z,95243.97
2022-08-28T02:25:49.877Z,95250.84
2022-08-28T02:28:52.590Z,95250.41
2022-08-28T02:31:54.263Z,95241.81
2022-08-28T02:34:55.977Z,95239.94
2022-08-28T02:37:57.653Z,95230.84
2022-08-28T02:41:04.286Z,95232.97
2022-08-28T02:44:06.168Z,95237.44
2022-08-28T02:47:08.524Z,95235.47
2022-08-28T02:50:11.263Z,95239.81
2022-08-28T02:53:13.202Z,95231.56
2022-08-28T02:56:17.011Z,95228.53
2022-08-28T02:59:18.787Z,95236.66
2022-08-28T03:02:20.516Z,95236.81
2022-08-28T03:05:23.448Z,95235.59
2022-08-28T03:08:27.237Z,95230.22
2022-08-28T03:11:30.584Z,95226.09
2022-08-28T03:14:32.227Z,95228.41
2022-08-28T03:17:34.292Z,95226.22
2022-08-28T03:20:35.933Z,95228.97
2022-08-28T03:23:39.217Z,95236.00
2022-08-28T03:26:42.251Z,95232.50
2022-08-28T03:29:43.906Z,95236.31
2022-08-28T03:32:45.554Z,95232.50
2022-08-28T03:35:47.939Z,95235.53
2022-08-28T03:38:49.812Z,95237.84
2022-08-28T03:41:52.879Z,95242.13
2022-08-28T03:44:54.524Z,95237.97
2022-08-28T03:47:56.190Z,95244.06
2022-08-28T03:50:58.340Z,95241.34
2022-08-28T03:54:00.837Z,95245.53
2022-08-28T03:57:04.076Z,95258.91
2022-08-28T04:00:06.862Z,95253.91
2022-08-28T04:03:08.717Z,95257.69
2022-08-28T04:06:10.833Z,95261.03
2022-08-28T04:09:12.568Z,95258.69
2022-08-28T04:12:15.642Z,95257.22
2022-08-28T04:15:17.311Z,95266.25
2022-08-28T04:18:18.995Z,95272.00
2022-08-28T04:21:22.309Z,95273.34
2022-08-28T04:24:23.995Z,95268.00
2022-08-28T04:27:27.103Z,95266.94
2022-08-28T04:30:28.745Z,95265.41
2022-08-28T04:33:30.554Z,95274.22
2022-08-28T04:36:32.703Z,95278.56
2022-08-28T04:39:34.346Z,95272.94
2022-08-28T04:42:38.501Z,95275.22
2022-08-28T04:45:40.818Z,95276.63
2022-08-28T04:48:42.573Z,95275.47
2022-08-28T04:51:44.246Z,95275.97
2022-08-28T04:54:48.892Z,95277.91
2022-08-28T04:57:51.937Z,95270.84
2022-08-28T05:00:54.149Z,95280.13
2022-08-28T05:03:57.523Z,95277.78
2022-08-28T05:06:59.436Z,95277.84
2022-08-28T05:10:01.124Z,95283.53
2022-08-28T05:13:04.165Z,95290.66
2022-08-28T05:16:06.404Z,95287.19
2022-08-28T05:19:08.247Z,95286.31
2022-08-28T05:22:10.535Z,95290.72
2022-08-28T05:25:12.272Z,95295.09
2022-08-28T05:28:16.384Z,95300.16
2022-08-28T05:31:19.354Z,95300.56
2022-08-28T05:34:21.040Z,95297.16
2022-08-28T05:37:22.690Z,95297.91
2022-08-28T05:40:24.410Z,95307.22
2022-08-28T05:43:27.616Z,95301.56
2022-08-28T05:46:29.617Z,95310.09
2022-08-28T05:49:31.308Z,95307.91
2022-08-28T05:52:34.127Z,95312.66
2022-08-28T05:55:39.348Z,95310.59
2022-08-28T05:58:42.702Z,95318.47
2022-08-28T06:01:45.752Z,95309.50
2022-08-28T06:04:47.456Z,95316.72
2022-08-28T06:07:49.290Z,95312.44
2022-08-28T06:10:51.074Z,95319.47
2022-08-28T06:13:54.132Z,95318.53
2022-08-28T06:16:57.161Z,95321.63
2022-08-28T06:19:58.811Z,95321.06
2022-08-28T06:23:00.440Z,95324.41
2022-08-28T06:26:02.143Z,95328.56
2022-08-28T06:29:07.580Z,95329.97
2022-08-28T06:32:09.319Z,95329.34
2022-08-28T06:35:11.017Z,95325.31
2022-08-28T06:38:12.753Z,95326.97
2022-08-28T06:41:14.548Z,95327.81
2022-08-28T06:44:18.464Z,95326.06
2022-08-28T06:47:20.157Z,95331.63
2022-08-28T06:50:21.813Z,95323.25
2022-08-28T06:53:24.420Z,95325.50
2022-08-28T06:56:29.181Z,95323.06
2022-08-28T06:59:32.240Z,95335.31
2022-08-28T07:02:34.348Z,95334.31
2022-08-28T07:05:36.021Z,95336.53
2022-08-28T07:08:38.188Z,95350.44
2022-08-28T07:11:40.109Z,95349.31
2022-08-28T07:14:43.610Z,95350.78
2022-08-28T07:17:45.228Z,95344.97
2022-08-28T07:20:54.737Z,95348.53
2022-08-28T07:23:56.569Z,95355.78
2022-08-28T07:26:58.253Z,95354.59
2022-08-28T07:30:01.308Z,95364.44
2022-08-28T07:33:03.226Z,95361.91
2022-08-28T07:36:06.134Z,95372.09
2022-08-28T07:39:08.384Z,95369.38
2022-08-28T07:42:10.122Z,95372.00
2022-08-28T07:45:13.209Z,95378.91
2022-08-28T07:48:15.006Z,95375.28
2022-08-28T07:51:16.793Z,95377.00
2022-08-28T07:54:18.532Z,95376.25
2022-08-28T07:57:20.541Z,95380.84
2022-08-28T08:00:26.014Z,95382.06
2022-08-28T08:03:29.188Z,95379.75
2022-08-28T08:06:33.769Z,95382.34
2022-08-28T08:09:37.325Z,95386.53
2022-08-28T08:12:39.423Z,95391.81
2022-08-28T08:15:42.966Z,95388.16
2022-08-28T08:18:45.005Z,95396.94
2022-08-28T08:21:47.657Z,95391.56
2022-08-28T08:24:49.332Z,95387.63
2022-08-28T08:27:50.967Z,95400.44
2022-08-28T08:31:03.737Z,95397.03
2022-08-28T08:34:05.587Z,95394.41
2022-08-28T08:37:08.093Z,95395.75
2022-08-28T08:40:11.640Z,95404.59
2022-08-28T08:43:14.505Z,95401.44
2022-08-28T08:46:18.215Z,95404.22
2022-08-28T08:49:22.556Z,95402.75
2022-08-28T08:52:35.012Z,95409.97
2022-08-28T08:55:42.099Z,95419.94
2022-08-28T08:58:45.555Z,95416.38
2022-08-28T09:01:52.148Z,95422.06
2022-08-28T09:04:57.268Z,95426.41
2022-08-28T09:08:01.171Z,95419.72
2022-08-28T09:11:07.071Z,95423.72
2022-08-28T09:14:11.936Z,95425.25
2022-08-28T09:17:16.524Z,95427.78
2022-08-28T09:20:19.858Z,95419.91
2022-08-28T09:23:30.094Z,95425.59
2022-08-28T09:26:31.881Z,95426.81
2022-08-28T09:29:34.584Z,95432.88
2022-08-28T09:32:39.677Z,95430.13
2022-08-28T09:35:41.573Z,95437.81
2022-08-28T09:38:43.216Z,95445.03
2022-08-28T09:41:50.617Z,95441.75
2022-08-28T09:44:54.902Z,95440.78
2022-08-28T09:48:00.018Z,95438.78
2022-08-28T09:51:02.820Z,95440.88
2022-08-28T09:54:09.532Z,95440.63
2022-08-28T09:57:11.453Z,95448.22
2022-08-28T10:00:13.737Z,95445.47
2022-08-28T10:03:20.362Z,95450.03
2022-08-28T10:06:24.886Z,95450.13
2022-08-28T10:09:29.455Z,95445.53
2022-08-28T10:12:35.759Z,95451.88
2022-08-28T10:15:45.490Z,95448.00
2022-08-28T10:18:53.018Z,95440.38
2022-08-28T10:22:01.217Z,95440.66
2022-08-28T10:25:13.596Z,95451.81
2022-08-28T10:28:25.516Z,95450.63
2022-08-28T10:31:31.674Z,95447.53
2022-08-28T10:34:42.979Z,95458.84
2022-08-28T10:37:51.524Z,95455.56
2022-08-28T10:40:55.554Z,95455.56
2022-08-28T10:44:00.831Z,95454.59
2022-08-28T10:47:03.470Z,95451.94
2022-08-28T10:50:08.462Z,95451.25
2022-08-28T10:53:12.773Z,95466.50
2022-08-28T10:56:17.165Z,95465.72
2022-08-28T10:59:18.761Z,95457.28
2022-08-28T11:02:22.496Z,95456.81
2022-08-28T11:05:28.598Z,95459.69
2022-08-28T11:08:31.920Z,95459.34
2022-08-28T11:11:41.055Z,95461.44
2022-08-28T11:14:48.441Z,95460.88
2022-08-28T11:17:50.570Z,95462.78
2022-08-28T11:20:57.202Z,95466.56
2022-08-28T11:24:00.957Z,95467.00
2022-08-28T11:27:11.399Z,95470.81
2022-08-28T11:30:30.956Z,95467.00
2022-08-28T11:33:38.196Z,95463.16
2022-08-28T11:36:58.725Z,95461.09
2022-08-28T11:40:13.736Z,95462.59
2022-08-28T11:43:33.418Z,95463.84
2022-08-28T11:46:36.368Z,95464.38
2022-08-28T11:49:40.543Z,95466.25
2022-08-28T11:52:52.209Z,95469.19
2022-08-28T11:56:28.282Z,95463.78
2022-08-28T11:59:43.266Z,95466.31
2022-08-28T12:02:53.182Z,95470.47
2022-08-28T12:05:56.071Z,95471.56
2022-08-28T12:09:03.933Z,95472.16
2022-08-28T12:12:09.123Z,95484.00
2022-08-28T12:15:11.149Z,95482.09
2022-08-28T12:18:14.887Z,95477.97
2022-08-28T12:21:17.800Z,95480.78
2022-08-28T12:24:22.222Z,95478.91
2022-08-28T12:27:24.497Z,95478.78
2022-08-28T12:30:27.628Z,95473.09
2022-08-28T12:33:33.824Z,95474.78
2022-08-28T12:36:35.553Z,95479.38
2022-08-28T12:39:38.654Z,95472.75
2022-08-28T12:42:46.105Z,95475.06
2022-08-28T12:45:50.042Z,95473.84
2022-08-28T12:48:53.075Z,95467.78
2022-08-28T12:52:07.076Z,95468.81
2022-08-28T12:55:10.217Z,95461.03
2022-08-28T12:58:12.940Z,95454.66
2022-08-28T13:01:16.202Z,95469.91
2022-08-28T13:04:25.526Z,95467.50
2022-08-28T13:07:29.423Z,95460.00
2022-08-28T13:10:35.057Z,95462.56
2022-08-28T13:13:37.840Z,95464.84
2022-08-28T13:16:40.639Z,95469.59
2022-08-28T13:19:42.383Z,95464.13
2022-08-28T13:22:45.875Z,95464.94
2022-08-28T13:26:02.699Z,95463.59
2022-08-28T13:29:15.392Z,95460.94
2022-08-28T13:32:18.054Z,95469.59
2022-08-28T13:35:34.106Z,95467.16
2022-08-28T13:38:35.739Z,95464.63
2022-08-28T13:41:39.221Z,95463.97
2022-08-28T13:44:45.325Z,95462.34
2022-08-28T13:47:46.979Z,95459.31
2022-08-28T13:50:50.230Z,95458.84
2022-08-28T13:53:53.064Z,95465.22
2022-08-28T13:56:56.441Z,95463.34
2022-08-28T13:59:58.129Z,95467.00
2022-08-28T14:02:59.794Z,95467.00
2022-08-28T14:06:01.786Z,95483.59
2022-08-28T14:09:03.549Z,95480.38
2022-08-28T14:12:06.931Z,95484.81
2022-08-28T14:15:09.172Z,95482.16
2022-08-28T14:18:10.836Z,95478.03
2022-08-28T14:21:12.650Z,95477.97
2022-08-28T14:24:14.325Z,95479.72
2022-08-28T14:27:17.644Z,95480.13
2022-08-28T14:30:19.392Z,95483.63
2022-08-28T14:33:21.211Z,95477.28
2022-08-28T14:36:24.929Z,95480.41
2022-08-28T14:39:26.915Z,95476.88
2022-08-28T14:42:29.981Z,95479.50
2022-08-28T14:45:31.717Z,95484.72
2022-08-28T14:48:33.526Z,95479.78
2022-08-28T14:51:36.283Z,95481.69
2022-08-28T14:54:38.635Z,95480.81
2022-08-28T14:57:41.714Z,95481.63
2022-08-28T15:00:45.074Z,95476.81
2022-08-28T15:03:47.026Z,95480.63
2022-08-28T15:06:48.986Z,95484.72
2022-08-28T15:09:50.625Z,95484.97
2022-08-28T15:12:53.666Z,95482.03
2022-08-28T15:16:00.878Z,95481.41
2022-08-28T15:19:02.780Z,95491.03
2022-08-28T15:22:04.529Z,95492.84
2022-08-28T15:25:06.412Z,95496.28
2022-08-28T15:28:09.544Z,95505.88
2022-08-28T15:31:11.312Z,95501.16
2022-08-28T15:34:14.757Z,95500.38
2022-08-28T15:37:16.449Z,95497.06
2022-08-28T15:40:18.191Z,95504.91
2022-08-28T15:43:21.316Z,95501.47
2022-08-28T15:46:23.507Z,95495.47
2022-08-28T15:49:27.519Z,95495.53
2022-08-28T15:52:29.177Z,95496.06
2022-08-28T15:55:30.937Z,95495.03
2022-08-28T15:58:33.989Z,95500.09
2022-08-28T16:01:35.767Z,95498.22
2022-08-28T16:04:37.436Z,95503.56
2022-08-28T16:07:39.262Z,95501.91
2022-08-28T16:10:40.909Z,95499.13
2022-08-28T16:13:44.142Z,95502.88
2022-08-28T16:16:46.626Z,95507.19
2022-08-28T16:19:52.731Z,95510.63
2022-08-28T16:22:54.367Z,95516.66
2022-08-28T16:25:56.031Z,95506.66
2022-08-28T16:28:59.091Z,95514.44
2022-08-28T16:32:00.762Z,95523.00
2022-08-28T16:35:03.078Z,95521.91
2022-08-28T16:38:04.750Z,95527.00
2022-08-28T16:41:10.346Z,95527.41
2022-08-28T16:44:13.402Z,95516.63
2022-08-28T16:47:15.314Z,95516.41
2022-08-28T16:50:17.682Z,95518.69
2022-08-28T16:53:20.040Z,95516.09
2022-08-28T16:56:28.666Z,95522.22
2022-08-28T16:59:31.716Z,95518.41
2022-08-28T17:02:33.547Z,95529.94
2022-08-28T17:05:36.780Z,95520.06
2022-08-28T17:08:40.218Z,95526.94
2022-08-28T17:11:41.982Z,95527.50
2022-08-28T17:14:45.585Z,95526.72
2022-08-28T17:17:47.251Z,95533.28
2022-08-28T17:20:48.936Z,95540.31
2022-08-28T17:23:50.845Z,95545.69
2022-08-28T17:26:52.745Z,95550.84
2022-08-28T17:29:55.836Z,95560.63
2022-08-28T17:32:57.594Z,95559.41
2022-08-28T17:35:59.478Z,95566.88
2022-08-28T17:39:02.152Z,95574.03
2022-08-28T17:42:04.226Z,95573.25
2022-08-28T17:45:08.512Z,95574.78
2022-08-28T17:48:10.741Z,95581.34
2022-08-28T17:51:12.675Z,95582.56
2022-08-28T17:54:19.355Z,95588.38
2022-08-28T17:57:21.348Z,95592.31
2022-08-28T18:00:24.501Z,95593.78
2022-08-28T18:03:26.432Z,95600.66
2022-08-28T18:06:28.478Z,95597.59
2022-08-28T18:09:30.530Z,95600.47
2022-08-28T18:12:32.901Z,95602.88
2022-08-28T18:15:36.738Z,95598.72
2022-08-28T18:18:39.085Z,95596.31
2022-08-28T18:21:41.199Z,95606.84
2022-08-28T18:24:43.290Z,95611.88
2022-08-28T18:27:45.324Z,95609.59
2022-08-28T18:30:49.365Z,95614.88
2022-08-28T18:33:51.488Z,95619.44
2022-08-28T18:36:53.560Z,95617.16
2022-08-28T18:39:55.649Z,95620.66
2022-08-28T18:42:58.425Z,95623.72
2022-08-28T18:46:02.294Z,95631.84
2022-08-28T18:49:04.375Z,95628.56
2022-08-28T18:52:06.695Z,95627.78
2022-08-28T18:55:09.433Z,95627.03
2022-08-28T18:58:15.275Z,95625.94
2022-08-28T19:01:19.120Z,95624.63
2022-08-28T19:04:21.268Z,95633.06
2022-08-28T19:07:23.487Z,95634.72
2022-08-28T19:10:33.407Z,95631.44
2022-08-28T19:13:36.848Z,95629.88
2022-08-28T19:16:40.796Z,95637.00
2022-08-28T19:19:42.793Z,95640.66
2022-08-28T19:22:47.855Z,95642.94
2022-08-28T19:25:49.978Z,95644.13
2022-08-28T19:28:52.124Z,95645.69
2022-08-28T19:31:55.693Z,95645.47
2022-08-28T19:34:58.757Z,95650.19
2022-08-28T19:38:00.921Z,95645.34
2022-08-28T19:41:05.564Z,95653.91
2022-08-28T19:44:07.800Z,95653.34
2022-08-28T19:47:11.481Z,95650.59
2022-08-28T19:50:13.696Z,95656.31
2022-08-28T19:53:15.774Z,95663.34
2022-08-28T19:56:18.064Z,95667.72
2022-08-28T19:59:23.960Z,95664.53
2022-08-28T20:02:30.042Z,95663.56
2022-08-28T20:05:32.127Z,95661.03
2022-08-28T20:08:34.613Z,95667.50
2022-08-28T20:11:36.389Z,95672.53
2022-08-28T20:14:38.614Z,95681.22
2022-08-28T20:17:44.124Z,95679.44
2022-08-28T20:20:51.843Z,95677.16
2022-08-28T20:23:54.026Z,95682.63
2022-08-28T20:26:55.697Z,95690.06
2022-08-28T20:29:57.382Z,95675.94
2022-08-28T20:33:00.480Z,95676.25
2022-08-28T20:36:03.244Z,95666.59
2022-08-28T20:39:05.266Z,95670.13
2022-08-28T20:42:07.135Z,95660.13
2022-08-28T20:45:09.155Z,95664.41
2022-08-28T20:48:12.378Z,95669.78
2022-08-28T20:51:14.117Z,95673.09
2022-08-28T20:54:16.139Z,95676.59
2022-08-28T20:57:19.335Z,95677.91
2022-08-28T21:00:21.598Z,95675.50
2022-08-28T21:03:25.228Z,95675.59
2022-08-28T21:06:30.597Z,95671.97
2022-08-28T21:09:39.557Z,95671.75
2022-08-28T21:12:53.885Z,95670.81
2022-08-28T21:15:55.537Z,95671.78
2022-08-28T21:19:15.102Z,95675.19
2022-08-28T21:22:17.235Z,95677.13
2022-08-28T21:25:22.500Z,95675.81
2022-08-28T21:28:24.201Z,95672.31
2022-08-28T21:31:26.088Z,95677.78
2022-08-28T21:34:29.170Z,95675.34
2022-08-28T21:37:31.122Z,95679.75
2022-08-28T21:40:33.063Z,95688.63
2022-08-28T21:43:35.114Z,95692.06
2022-08-28T21:46:36.797Z,95695.88
2022-08-28T21:49:39.824Z,95693.16
2022-08-28T21:52:41.451Z,95694.50
2022-08-28T21:55:47.037Z,95697.13
2022-08-28T21:58:48.980Z,95702.09
2022-08-28T22:01:50.635Z,95700.00
2022-08-28T22:04:53.711Z,95700.78
2022-08-28T22:07:55.407Z,95710.22
2022-08-28T22:10:57.069Z,95711.66
2022-08-28T22:13:58.709Z,95715.94
2022-08-28T22:17:00.430Z,95717.97
2022-08-28T22:20:03.980Z,95716.78
2022-08-28T22:23:05.827Z,95720.06
2022-08-28T22:26:12.650Z,95721.34
2022-08-28T22:29:14.329Z,95721.34
2022-08-28T22:32:16.055Z,95720.56
2022-08-28T22:35:19.261Z,95723.31
2022-08-28T22:38:21.318Z,95730.69
2022-08-28T22:41:23.108Z,95735.72
2022-08-28T22:44:26.031Z,95726.06
2022-08-28T22:47:27.700Z,95729.50
2022-08-28T22:50:30.770Z,95736.94
2022-08-28T22:53:32.466Z,95729.50
2022-08-28T22:56:34.124Z,95726.75
2022-08-28T22:59:35.853Z,95724.91
2022-08-28T23:02:38.112Z,95728.94
2022-08-28T23:05:41.239Z,95725.25
2022-08-28T23:08:43.064Z,95719.47
2022-08-28T23:11:44.805Z,95716.78
2022-08-28T23:14:48.603Z,95716.38
2022-08-28T23:17:50.682Z,95721.31
2022-08-28T23:20:53.784Z,95722.44
2022-08-28T23:23:56.336Z,95720.66
2022-08-28T23:27:14.003Z,95712.88
2022-08-28T23:30:20.791Z,95720.00
2022-08-28T23:33:23.707Z,95716.16
2022-08-28T23:36:27.265Z,95715.66
2022-08-28T23:39:28.907Z,95714.84
2022-08-28T23:42:32.181Z,95714.91
2022-08-28T23:45:33.833Z,95713.38
2022-08-28T23:48:35.603Z,95712.84
2022-08-28T23:51:39.216Z,95708.66
2022-08-28T23:54:41.228Z,95709.50
2022-08-28T23:57:42.963Z,95701.28
